createdAt,value
2019-02-26T00:00:32.356Z,5.00
2019-02-26T00:03:01.709Z,4.80
2019-02-26T00:05:28.037Z,4.25
2019-02-26T00:07:55.405Z,5.47
2019-02-26T00:10:24.764Z,4.83
2019-02-26T00:12:49.111Z,4.85
2019-02-26T00:15:14.789Z,3.80
2019-02-26T00:17:41.190Z,3.47
2019-02-26T00:20:10.936Z,3.85
2019-02-26T00:22:59.752Z,4.15
2019-02-26T00:25:26.279Z,3.60
2019-02-26T00:27:53.995Z,5.20
2019-02-26T00:30:19.537Z,4.22
2019-02-26T00:32:45.507Z,3.67
2019-02-26T00:35:11.549Z,3.80
2019-02-26T00:37:37.602Z,6.05
2019-02-26T00:40:04.551Z,5.28
2019-02-26T00:42:32.075Z,6.28
2019-02-26T00:45:00.157Z,5.85
2019-02-26T00:47:25.411Z,4.58
2019-02-26T00:49:53.378Z,4.43
2019-02-26T00:52:18.932Z,4.50
2019-02-26T00:54:44.627Z,6.73
2019-02-26T00:57:11.595Z,7.00
2019-02-26T00:59:38.859Z,5.47
2019-02-26T01:02:05.726Z,5.40
2019-02-26T01:04:31.502Z,4.50
2019-02-26T01:06:58.987Z,6.30
2019-02-26T01:09:25.245Z,4.28
2019-02-26T01:11:53.977Z,4.72
2019-02-26T01:14:20.407Z,3.80
2019-02-26T01:16:48.309Z,4.85
2019-02-26T01:19:15.355Z,4.92
2019-02-26T01:21:41.925Z,3.50
2019-02-26T01:24:08.618Z,3.83
2019-02-26T01:26:34.343Z,4.12
2019-02-26T01:29:00.984Z,4.07
2019-02-26T01:31:29.085Z,3.92
2019-02-26T01:33:55.327Z,4.25
2019-02-26T01:36:23.693Z,3.58
2019-02-26T01:38:51.044Z,4.15
2019-02-26T01:41:17.961Z,3.95
2019-02-26T01:43:45.001Z,4.42
2019-02-26T01:46:11.711Z,4.80
2019-02-26T01:48:39.512Z,4.40
2019-02-26T01:51:06.152Z,3.87
2019-02-26T01:53:32.063Z,4.23
2019-02-26T01:55:57.783Z,4.63
2019-02-26T01:58:23.456Z,5.33
2019-02-26T02:00:49.107Z,4.70
2019-02-26T02:03:14.797Z,5.10
2019-02-26T02:05:40.522Z,3.63
2019-02-26T02:08:09.055Z,4.20
2019-02-26T02:10:34.004Z,4.05
2019-02-26T02:13:02.300Z,3.53
2019-02-26T02:15:27.500Z,4.60
2019-02-26T02:17:55.422Z,3.60
2019-02-26T02:20:21.672Z,4.00
2019-02-26T02:22:47.761Z,4.30
2019-02-26T02:25:13.487Z,4.00
2019-02-26T02:27:39.180Z,4.47
2019-02-26T02:30:06.784Z,3.60
2019-02-26T02:32:34.472Z,4.17
2019-02-26T02:35:03.292Z,4.00
2019-02-26T02:37:30.040Z,3.12
2019-02-26T02:39:55.987Z,3.95
2019-02-26T02:42:22.130Z,3.30
2019-02-26T02:44:49.550Z,4.00
2019-02-26T02:47:15.886Z,4.20
2019-02-26T02:49:44.258Z,3.30
2019-02-26T02:52:11.754Z,3.65
2019-02-26T02:54:38.570Z,3.58
2019-02-26T02:57:07.499Z,4.28
2019-02-26T02:59:34.027Z,4.28
2019-02-26T03:02:00.328Z,4.80
2019-02-26T03:04:28.339Z,3.53
2019-02-26T03:06:55.472Z,3.15
2019-02-26T03:09:21.177Z,3.92
2019-02-26T03:11:49.441Z,3.57
2019-02-26T03:14:16.639Z,3.70
2019-02-26T03:16:45.025Z,4.22
2019-02-26T03:19:12.265Z,4.30
2019-02-26T03:21:37.855Z,3.40
2019-02-26T03:24:06.107Z,3.60
2019-02-26T03:26:31.222Z,5.00
2019-02-26T03:28:57.162Z,2.70
2019-02-26T03:31:28.863Z,3.27
2019-02-26T03:33:50.688Z,3.67
2019-02-26T03:36:17.173Z,4.37
2019-02-26T03:38:46.432Z,3.30
2019-02-26T03:41:11.826Z,3.35
2019-02-26T03:43:39.357Z,3.77
2019-02-26T03:46:05.072Z,3.92
2019-02-26T03:48:30.721Z,4.07
2019-02-26T03:51:00.559Z,3.03
2019-02-26T03:53:28.054Z,3.72
2019-02-26T03:55:51.959Z,3.62
2019-02-26T03:58:17.632Z,2.75
2019-02-26T04:00:43.894Z,3.87
2019-02-26T04:03:12.451Z,3.10
2019-02-26T04:05:38.976Z,4.00
2019-02-26T04:08:04.853Z,4.47
2019-02-26T04:10:30.628Z,4.70
2019-02-26T04:12:58.195Z,5.37
2019-02-26T04:15:27.092Z,4.05
2019-02-26T04:17:51.851Z,5.12
2019-02-26T04:20:17.517Z,3.90
2019-02-26T04:22:48.881Z,5.23
2019-02-26T04:25:12.697Z,4.70
2019-02-26T04:27:41.369Z,4.08
2019-02-26T04:30:16.951Z,5.08
2019-02-26T04:32:46.237Z,3.87
2019-02-26T04:35:15.038Z,3.92
2019-02-26T04:37:42.626Z,4.37
2019-02-26T04:40:14.149Z,4.10
2019-02-26T04:42:59.537Z,4.95
2019-02-26T04:45:31.274Z,4.60
2019-02-26T04:48:00.729Z,4.83
2019-02-26T04:50:28.908Z,5.05
2019-02-26T04:52:56.255Z,4.87
2019-02-26T04:55:21.952Z,4.72
2019-02-26T04:57:51.007Z,4.93
2019-02-26T05:00:16.375Z,5.00
2019-02-26T05:02:42.064Z,4.17
2019-02-26T05:05:08.093Z,5.37
2019-02-26T05:07:35.439Z,4.60
2019-02-26T05:10:02.264Z,4.47
2019-02-26T05:12:30.887Z,5.45
2019-02-26T05:14:55.948Z,3.50
2019-02-26T05:17:23.925Z,4.47
2019-02-26T05:19:51.569Z,4.90
2019-02-26T05:22:16.804Z,4.05
2019-02-26T05:24:44.820Z,3.90
2019-02-26T05:27:15.495Z,3.45
2019-02-26T05:29:43.469Z,4.25
2019-02-26T05:32:10.028Z,5.30
2019-02-26T05:34:37.462Z,3.95
2019-02-26T05:37:04.721Z,4.58
2019-02-26T05:39:30.994Z,4.30
2019-02-26T05:41:58.903Z,4.10
2019-02-26T05:44:24.526Z,4.62
2019-02-26T05:46:53.020Z,4.00
2019-02-26T05:49:19.518Z,3.35
2019-02-26T05:51:45.349Z,3.70
2019-02-26T05:54:12.266Z,4.00
2019-02-26T05:56:41.260Z,3.22
2019-02-26T05:59:09.087Z,6.35
2019-02-26T06:01:34.406Z,6.42
2019-02-26T06:04:00.084Z,6.73
2019-02-26T06:06:25.750Z,5.00
2019-02-26T06:08:51.447Z,4.43
2019-02-26T06:11:17.223Z,4.47
2019-02-26T06:13:43.291Z,5.53
2019-02-26T06:16:09.308Z,4.30
2019-02-26T06:18:34.989Z,4.40
2019-02-26T06:21:01.213Z,4.80
2019-02-26T06:23:28.288Z,4.35
2019-02-26T06:25:55.959Z,5.72
2019-02-26T06:28:22.640Z,4.53
2019-02-26T06:30:48.584Z,3.60
2019-02-26T06:33:16.340Z,5.27
2019-02-26T06:35:42.834Z,3.42
2019-02-26T06:38:09.292Z,3.42
2019-02-26T06:40:37.014Z,3.67
2019-02-26T06:43:03.782Z,3.62
2019-02-26T06:45:29.779Z,3.20
2019-02-26T06:47:56.386Z,4.45
2019-02-26T06:50:23.025Z,4.00
2019-02-26T06:52:50.771Z,4.73
2019-02-26T06:55:19.136Z,5.30
2019-02-26T06:57:47.129Z,5.47
2019-02-26T07:00:18.667Z,5.50
2019-02-26T07:02:46.174Z,6.45
2019-02-26T07:05:12.430Z,7.50
2019-02-26T07:07:38.091Z,6.00
2019-02-26T07:10:05.504Z,5.80
2019-02-26T07:12:31.484Z,6.15
2019-02-26T07:14:58.059Z,6.60
2019-02-26T07:17:23.987Z,5.60
2019-02-26T07:19:51.243Z,6.50
2019-02-26T07:22:18.345Z,6.20
2019-02-26T07:24:46.274Z,5.47
2019-02-26T07:27:13.809Z,7.70
2019-02-26T07:29:40.078Z,8.43
2019-02-26T07:32:07.400Z,8.35
2019-02-26T07:34:33.062Z,8.08
2019-02-26T07:36:58.717Z,6.80
2019-02-26T07:39:24.422Z,7.33
2019-02-26T07:41:51.663Z,6.03
2019-02-26T07:44:18.864Z,6.03
2019-02-26T07:46:45.542Z,7.05
2019-02-26T07:49:11.200Z,7.53
2019-02-26T07:51:38.612Z,5.63
2019-02-26T07:54:04.453Z,6.90
2019-02-26T07:56:32.618Z,5.67
2019-02-26T07:59:01.274Z,6.20
2019-02-26T08:01:25.859Z,5.97
2019-02-26T08:03:54.358Z,5.47
2019-02-26T08:06:20.025Z,4.90
2019-02-26T08:08:48.983Z,5.33
2019-02-26T08:11:14.950Z,5.30
2019-02-26T08:13:41.041Z,6.87
2019-02-26T08:16:06.745Z,5.80
2019-02-26T08:18:32.435Z,5.40
2019-02-26T08:21:02.991Z,5.53
2019-02-26T08:23:29.384Z,5.23
2019-02-26T08:25:57.314Z,6.40
2019-02-26T08:28:24.763Z,7.00
2019-02-26T08:30:52.404Z,8.20
2019-02-26T08:33:17.859Z,8.50
2019-02-26T08:35:43.505Z,7.97
2019-02-26T08:38:09.190Z,7.40
2019-02-26T08:40:38.677Z,5.63
2019-02-26T08:43:04.625Z,6.30
2019-02-26T08:45:33.321Z,6.40
2019-02-26T08:47:58.984Z,5.77
2019-02-26T08:50:28.533Z,5.43
2019-02-26T08:52:55.348Z,6.00
2019-02-26T08:55:22.307Z,5.40
2019-02-26T08:57:51.220Z,5.27
2019-02-26T09:00:16.745Z,5.17
2019-02-26T09:02:43.731Z,5.80
2019-02-26T09:05:11.913Z,5.60
2019-02-26T09:07:38.571Z,5.37
2019-02-26T09:10:07.305Z,5.63
2019-02-26T09:12:33.356Z,4.80
2019-02-26T09:14:59.001Z,6.07
2019-02-26T09:17:26.925Z,5.40
2019-02-26T09:19:54.675Z,5.00
2019-02-26T09:22:21.168Z,5.37
2019-02-26T09:24:49.428Z,5.17
2019-02-26T09:27:15.267Z,5.33
2019-02-26T09:29:43.915Z,5.37
2019-02-26T09:32:09.282Z,5.90
2019-02-26T09:34:37.967Z,5.23
2019-02-26T09:37:05.736Z,4.90
2019-02-26T09:39:32.518Z,7.13
2019-02-26T09:41:59.855Z,5.80
2019-02-26T09:44:28.658Z,6.83
2019-02-26T09:46:55.366Z,6.70
2019-02-26T09:49:24.072Z,6.27
2019-02-26T09:51:49.729Z,6.97
2019-02-26T09:54:17.609Z,5.70
2019-02-26T09:56:42.947Z,7.23
2019-02-26T09:59:09.843Z,7.70
2019-02-26T10:01:37.904Z,6.83
2019-02-26T10:04:05.377Z,7.47
2019-02-26T10:06:31.541Z,6.73
2019-02-26T10:08:57.212Z,6.93
2019-02-26T10:11:25.049Z,7.63
2019-02-26T10:13:51.262Z,6.90
2019-02-26T10:16:16.990Z,6.63
2019-02-26T10:18:44.929Z,7.03
2019-02-26T10:21:12.290Z,5.37
2019-02-26T10:23:38.391Z,5.50
2019-02-26T10:26:05.798Z,5.27
2019-02-26T10:28:35.246Z,5.77
2019-02-26T10:31:03.220Z,5.13
2019-02-26T10:33:26.805Z,5.00
2019-02-26T10:35:52.465Z,4.23
2019-02-26T10:38:18.433Z,3.93
2019-02-26T10:40:53.380Z,3.70
2019-02-26T10:43:11.969Z,3.37
2019-02-26T10:45:41.616Z,3.10
2019-02-26T10:48:05.195Z,3.60
2019-02-26T10:50:32.006Z,3.80
2019-02-26T10:53:06.556Z,3.80
2019-02-26T10:55:31.503Z,3.00
2019-02-26T10:57:55.131Z,3.83
2019-02-26T11:00:32.219Z,3.07
2019-02-26T11:02:58.014Z,4.10
2019-02-26T11:05:26.246Z,3.70
2019-02-26T11:07:53.202Z,4.20
2019-02-26T11:10:20.788Z,4.33
2019-02-26T11:12:48.130Z,3.43
2019-02-26T11:15:15.816Z,4.10
2019-02-26T11:17:43.111Z,4.50
2019-02-26T11:20:10.247Z,4.00
2019-02-26T11:22:36.344Z,3.70
2019-02-26T11:25:02.710Z,3.60
2019-02-26T11:27:28.396Z,4.40
2019-02-26T11:29:54.622Z,5.30
2019-02-26T11:32:21.613Z,4.00
2019-02-26T11:34:47.549Z,4.57
2019-02-26T11:37:13.239Z,4.73
2019-02-26T11:39:38.911Z,4.90
2019-02-26T11:42:04.866Z,4.10
2019-02-26T11:44:32.818Z,4.47
2019-02-26T11:46:58.524Z,4.93
2019-02-26T11:49:24.198Z,4.00
2019-02-26T11:51:51.447Z,4.47
2019-02-26T11:54:17.713Z,3.97
2019-02-26T11:56:44.529Z,4.07
2019-02-26T11:59:12.605Z,3.83
2019-02-26T12:01:39.530Z,3.70
2019-02-26T12:04:08.308Z,3.80
2019-02-26T12:06:33.786Z,3.80
2019-02-26T12:08:59.448Z,3.93
2019-02-26T12:11:25.132Z,4.23
2019-02-26T12:13:53.167Z,3.57
2019-02-26T12:16:19.329Z,4.43
2019-02-26T12:18:46.941Z,4.93
2019-02-26T12:21:12.861Z,3.70
2019-02-26T12:23:39.745Z,3.60
2019-02-26T12:26:06.981Z,3.70
2019-02-26T12:28:35.939Z,3.70
2019-02-26T12:31:01.244Z,3.33
2019-02-26T12:33:32.209Z,3.67
2019-02-26T12:35:58.989Z,3.57
2019-02-26T12:38:23.749Z,3.80
2019-02-26T12:40:50.766Z,3.83
2019-02-26T12:43:19.172Z,4.30
2019-02-26T12:45:44.620Z,4.60
2019-02-26T12:48:13.298Z,4.53
2019-02-26T12:50:40.405Z,3.20
2019-02-26T12:53:05.615Z,3.90
2019-02-26T12:55:32.911Z,4.03
2019-02-26T12:57:59.454Z,3.63
2019-02-26T13:00:26.193Z,4.43
2019-02-26T13:02:52.375Z,2.77
2019-02-26T13:05:19.667Z,3.70
2019-02-26T13:07:45.953Z,2.50
2019-02-26T13:10:13.285Z,3.47
2019-02-26T13:12:39.184Z,3.30
2019-02-26T13:15:09.789Z,2.40
2019-02-26T13:17:34.331Z,3.13
2019-02-26T13:20:01.675Z,2.20
2019-02-26T13:22:28.510Z,2.50
2019-02-26T13:24:54.366Z,2.43
2019-02-26T13:27:20.021Z,2.40
2019-02-26T13:29:54.532Z,2.70
2019-02-26T13:32:17.574Z,3.53
2019-02-26T13:34:44.094Z,2.67
2019-02-26T13:37:09.858Z,2.60
2019-02-26T13:39:38.336Z,3.30
2019-02-26T13:44:31.551Z,4.10
2019-02-26T13:46:57.244Z,4.23
2019-02-26T13:49:22.924Z,3.93
2019-02-26T13:51:48.603Z,5.43
2019-02-26T13:54:14.261Z,3.90
2019-02-26T13:56:43.281Z,5.70
2019-02-26T13:59:08.948Z,4.37
2019-02-26T14:01:37.766Z,3.20
2019-02-26T14:04:03.508Z,4.03
2019-02-26T14:06:32.373Z,4.83
2019-02-26T14:08:58.365Z,4.10
2019-02-26T14:11:27.370Z,3.30
2019-02-26T14:13:53.069Z,2.80
2019-02-26T14:16:20.706Z,3.50
2019-02-26T14:18:48.232Z,2.53
2019-02-26T14:21:14.210Z,3.13
2019-02-26T14:23:39.895Z,3.90
2019-02-26T14:26:05.558Z,3.50
2019-02-26T14:28:34.533Z,2.87
2019-02-26T14:31:00.223Z,3.07
2019-02-26T14:33:28.912Z,2.77
2019-02-26T14:35:54.565Z,2.70
2019-02-26T14:38:22.977Z,2.67
2019-02-26T14:40:48.671Z,2.67
2019-02-26T14:43:17.353Z,2.90
2019-02-26T14:45:43.274Z,3.43
2019-02-26T14:48:13.781Z,2.60
2019-02-26T14:50:39.887Z,1.90
2019-02-26T14:53:08.742Z,1.90
2019-02-26T14:55:34.397Z,1.97
2019-02-26T14:58:00.049Z,1.90
2019-02-26T15:00:27.651Z,1.57
2019-02-26T15:02:53.553Z,2.17
2019-02-26T15:05:20.319Z,2.83
2019-02-26T15:07:46.064Z,2.10
2019-02-26T15:10:14.966Z,2.03
2019-02-26T15:12:40.932Z,2.43
2019-02-26T15:15:11.612Z,3.57
2019-02-26T15:17:37.354Z,3.00
2019-02-26T15:20:04.936Z,3.50
2019-02-26T15:22:31.303Z,2.83
2019-02-26T15:24:57.028Z,2.20
2019-02-26T15:27:22.983Z,2.73
2019-02-26T15:29:52.007Z,2.90
2019-02-26T15:32:17.667Z,2.83
2019-02-26T15:34:43.352Z,3.13
2019-02-26T15:37:09.049Z,2.73
2019-02-26T15:39:34.718Z,2.53
2019-02-26T15:42:04.523Z,2.60
2019-02-26T15:44:30.530Z,2.70
2019-02-26T15:46:59.615Z,2.83
2019-02-26T15:49:27.766Z,2.50
2019-02-26T15:51:53.453Z,2.33
2019-02-26T15:54:19.135Z,3.37
2019-02-26T15:56:47.355Z,2.77
2019-02-26T15:59:13.266Z,3.60
2019-02-26T16:01:43.438Z,3.60
2019-02-26T16:04:09.385Z,3.60
2019-02-26T16:06:38.103Z,2.73
2019-02-26T16:09:04.075Z,3.90
2019-02-26T16:11:30.074Z,4.10
2019-02-26T16:13:55.762Z,3.80
2019-02-26T16:16:21.809Z,4.80
2019-02-26T16:18:48.857Z,4.00
2019-02-26T16:21:18.554Z,3.77
2019-02-26T16:23:43.577Z,5.33
2019-02-26T16:26:09.258Z,5.37
2019-02-26T16:28:38.123Z,4.77
2019-02-26T16:31:04.628Z,3.90
2019-02-26T16:33:32.614Z,4.60
2019-02-26T16:35:58.409Z,6.10
2019-02-26T16:38:27.280Z,5.77
2019-02-26T16:40:52.955Z,4.97
2019-02-26T16:43:18.864Z,7.40
2019-02-26T16:45:44.823Z,6.33
2019-02-26T16:48:10.743Z,5.80
2019-02-26T16:50:39.420Z,6.33
2019-02-26T16:53:05.287Z,7.37
2019-02-26T16:55:35.844Z,7.60
2019-02-26T16:58:03.204Z,7.90
2019-02-26T17:00:29.442Z,6.70
2019-02-26T17:02:55.106Z,6.70
2019-02-26T17:05:23.853Z,7.47
2019-02-26T17:07:49.496Z,7.60
2019-02-26T17:10:19.999Z,7.00
2019-02-26T17:12:50.286Z,7.23
2019-02-26T17:15:30.474Z,7.47
2019-02-26T17:17:56.260Z,7.60
2019-02-26T17:20:23.201Z,8.07
2019-02-26T17:22:48.958Z,8.10
2019-02-26T17:25:14.617Z,6.87
2019-02-26T17:27:40.562Z,6.67
2019-02-26T17:30:08.137Z,7.40
2019-02-26T17:32:35.678Z,7.10
2019-02-26T17:35:01.380Z,6.77
2019-02-26T17:37:27.073Z,8.90
2019-02-26T17:39:52.998Z,7.27
2019-02-26T17:42:18.933Z,6.63
2019-02-26T17:44:44.620Z,6.53
2019-02-26T17:47:10.266Z,7.60
2019-02-26T17:49:36.282Z,7.63
2019-02-26T17:52:02.870Z,7.20
2019-02-26T17:54:28.845Z,9.23
2019-02-26T17:56:54.523Z,9.27
2019-02-26T17:59:20.505Z,7.83
2019-02-26T18:01:46.162Z,7.37
2019-02-26T18:04:12.120Z,7.33
2019-02-26T18:06:37.774Z,8.43
2019-02-26T18:09:04.992Z,7.50
2019-02-26T18:11:30.669Z,8.17
2019-02-26T18:14:00.782Z,8.03
2019-02-26T18:16:26.502Z,7.77
2019-02-26T18:18:55.189Z,7.80
2019-02-26T18:21:23.916Z,8.03
2019-02-26T18:23:49.598Z,7.33
2019-02-26T18:26:17.636Z,7.47
2019-02-26T18:28:47.913Z,8.50
2019-02-26T18:31:13.676Z,9.57
2019-02-26T18:33:39.430Z,8.37
2019-02-26T18:36:05.085Z,10.23
2019-02-26T18:38:30.768Z,10.70
2019-02-26T18:41:00.577Z,10.73
2019-02-26T18:43:24.388Z,11.05
2019-02-26T18:45:50.297Z,7.57
2019-02-26T18:48:16.071Z,8.20
2019-02-26T18:50:45.053Z,9.03
2019-02-26T18:53:11.772Z,7.20
2019-02-26T18:55:41.699Z,8.88
2019-02-26T18:58:07.650Z,9.18
2019-02-26T19:00:36.239Z,8.50
2019-02-26T19:03:01.902Z,8.50
2019-02-26T19:05:29.136Z,8.53
2019-02-26T19:07:55.095Z,8.90
2019-02-26T19:10:25.657Z,7.97
2019-02-26T19:12:51.440Z,7.62
2019-02-26T19:15:19.038Z,7.07
2019-02-26T19:17:45.911Z,7.33
2019-02-26T19:20:14.939Z,8.33
2019-02-26T19:22:40.401Z,7.65
2019-02-26T19:25:08.841Z,6.80
2019-02-26T19:27:34.260Z,7.65
2019-02-26T19:30:03.896Z,8.28
2019-02-26T19:32:27.902Z,6.53
2019-02-26T19:34:53.598Z,7.87
2019-02-26T19:37:22.336Z,7.60
2019-02-26T19:39:47.203Z,7.87
2019-02-26T19:42:17.378Z,7.30
2019-02-26T19:44:41.558Z,7.87
2019-02-26T19:47:10.669Z,7.20
2019-02-26T19:49:36.867Z,9.15
2019-02-26T19:52:04.322Z,7.22
2019-02-26T19:54:29.989Z,6.27
2019-02-26T19:56:57.090Z,6.27
2019-02-26T19:59:23.513Z,6.90
2019-02-26T20:01:49.204Z,7.20
2019-02-26T20:04:17.840Z,6.70
2019-02-26T20:06:43.535Z,8.00
2019-02-26T20:09:12.029Z,8.63
2019-02-26T20:11:37.709Z,9.38
2019-02-26T20:14:05.452Z,9.83
2019-02-26T20:16:31.139Z,9.95
2019-02-26T20:19:01.716Z,9.13
2019-02-26T20:21:27.379Z,10.50
2019-02-26T20:23:56.143Z,9.53
2019-02-26T20:26:21.845Z,10.30
2019-02-26T20:28:47.561Z,8.67
2019-02-26T20:31:13.243Z,8.63
2019-02-26T20:33:39.202Z,8.87
2019-02-26T20:36:07.666Z,8.90
2019-02-26T20:38:35.296Z,7.70
2019-02-26T20:41:01.343Z,7.37
2019-02-26T20:43:27.312Z,8.43
2019-02-26T20:45:56.085Z,7.90
2019-02-26T20:48:21.817Z,10.90
2019-02-26T20:50:53.457Z,10.53
2019-02-26T20:53:18.229Z,8.25
2019-02-26T20:55:52.436Z,7.53
2019-02-26T20:58:14.516Z,8.40
2019-02-26T21:00:42.548Z,9.07
2019-02-26T21:03:08.195Z,8.93
2019-02-26T21:05:34.636Z,7.75
2019-02-26T21:08:00.388Z,8.40
2019-02-26T21:10:26.080Z,8.00
2019-02-26T21:12:51.750Z,9.47
2019-02-26T21:15:18.806Z,7.97
2019-02-26T21:17:46.443Z,7.60
2019-02-26T21:20:12.420Z,7.35
2019-02-26T21:22:41.233Z,7.50
2019-02-26T21:25:08.527Z,6.72
2019-02-26T21:27:35.652Z,6.12
2019-02-26T21:30:01.814Z,6.90
2019-02-26T21:32:30.546Z,6.78
2019-02-26T21:34:57.023Z,5.83
2019-02-26T21:37:25.852Z,6.87
2019-02-26T21:39:51.526Z,7.67
2019-02-26T21:42:17.219Z,7.97
2019-02-26T21:44:42.876Z,8.13
2019-02-26T21:47:08.832Z,9.40
2019-02-26T21:49:37.520Z,8.77
2019-02-26T21:52:06.673Z,9.18
2019-02-26T21:54:31.984Z,8.98
2019-02-26T21:56:57.906Z,8.85
2019-02-26T21:59:26.395Z,8.17
2019-02-26T22:01:52.172Z,8.38
2019-02-26T22:04:20.629Z,7.63
2019-02-26T22:06:47.773Z,9.13
2019-02-26T22:09:16.568Z,7.75
2019-02-26T22:11:42.235Z,9.50
2019-02-26T22:14:12.570Z,8.40
2019-02-26T22:16:38.283Z,10.48
2019-02-26T22:19:04.715Z,10.43
2019-02-26T22:21:31.574Z,9.25
2019-02-26T22:23:57.512Z,8.90
2019-02-26T22:26:23.675Z,8.30
2019-02-26T22:28:50.758Z,7.25
2019-02-26T22:31:16.690Z,6.90
2019-02-26T22:33:43.184Z,7.00
2019-02-26T22:36:11.188Z,6.78
2019-02-26T22:38:36.887Z,8.10
2019-02-26T22:41:08.315Z,6.73
2019-02-26T22:43:30.137Z,6.42
2019-02-26T22:45:56.098Z,6.10
2019-02-26T22:48:24.586Z,7.13
2019-02-26T22:50:50.279Z,6.85
2019-02-26T22:53:18.814Z,6.00
2019-02-26T22:55:44.769Z,7.85
2019-02-26T22:58:13.986Z,6.33
2019-02-26T23:00:48.203Z,6.22
2019-02-26T23:03:12.940Z,6.30
2019-02-26T23:05:39.106Z,6.65
2019-02-26T23:08:05.003Z,6.10
2019-02-26T23:10:30.863Z,6.23
2019-02-26T23:12:57.076Z,6.17
2019-02-26T23:15:22.941Z,7.05
2019-02-26T23:17:51.744Z,7.13
2019-02-26T23:20:18.140Z,8.30
2019-02-26T23:22:45.991Z,8.08
2019-02-26T23:25:11.952Z,7.60
2019-02-26T23:27:46.135Z,8.90
2019-02-26T23:30:13.048Z,7.97
2019-02-26T23:32:39.018Z,8.70
2019-02-26T23:35:10.079Z,7.97
2019-02-26T23:37:35.897Z,8.20
2019-02-26T23:40:01.958Z,7.90
2019-02-26T23:42:27.883Z,7.83
2019-02-26T23:44:53.845Z,8.67
2019-02-26T23:47:19.541Z,8.20
2019-02-26T23:49:47.630Z,7.97
2019-02-26T23:52:12.793Z,7.15
2019-02-26T23:54:39.959Z,7.93
2019-02-26T23:57:06.047Z,7.72
2019-02-26T23:59:31.708Z,7.10
